sensor_id;sensor_type;location;lat;lon;timestamp;pressure;altitude;pressure_sealevel;temperature;humidity
29359;BME280;16347;53.232;6.556;2023-02-18T00:01:37;101993.22;;;10.02;62.86
29359;BME280;16347;53.232;6.556;2023-02-18T00:04:05;101999.41;;;9.93;63.29
29359;BME280;16347;53.232;6.556;2023-02-18T00:06:34;101996.06;;;10.00;63.33
29359;BME280;16347;53.232;6.556;2023-02-18T00:09:03;101999.63;;;10.01;63.29
29359;BME280;16347;53.232;6.556;2023-02-18T00:11:33;101996.28;;;10.08;62.95
29359;BME280;16347;53.232;6.556;2023-02-18T00:14:04;101997.53;;;10.04;63.04
29359;BME280;16347;53.232;6.556;2023-02-18T00:16:34;101990.47;;;10.13;63.05
29359;BME280;16347;53.232;6.556;2023-02-18T00:19:04;101982.22;;;10.14;62.22
29359;BME280;16347;53.232;6.556;2023-02-18T00:21:34;101974.44;;;10.10;62.83
29359;BME280;16347;53.232;6.556;2023-02-18T00:24:03;101963.28;;;10.13;62.56
29359;BME280;16347;53.232;6.556;2023-02-18T00:26:32;101950.38;;;9.94;63.14
29359;BME280;16347;53.232;6.556;2023-02-18T00:29:01;101961.53;;;9.80;63.33
29359;BME280;16347;53.232;6.556;2023-02-18T00:31:32;101958.69;;;9.82;63.96
29359;BME280;16347;53.232;6.556;2023-02-18T00:34:03;101950.28;;;9.85;63.87
29359;BME280;16347;53.232;6.556;2023-02-18T00:36:32;101945.25;;;9.80;64.01
29359;BME280;16347;53.232;6.556;2023-02-18T00:39:04;101942.53;;;9.69;64.67
29359;BME280;16347;53.232;6.556;2023-02-18T00:41:34;101942.28;;;9.72;64.38
29359;BME280;16347;53.232;6.556;2023-02-18T00:44:02;101934.75;;;9.75;64.65
29359;BME280;16347;53.232;6.556;2023-02-18T00:46:31;101929.94;;;9.68;64.93
29359;BME280;16347;53.232;6.556;2023-02-18T00:49:00;101931.84;;;9.56;65.02
29359;BME280;16347;53.232;6.556;2023-02-18T00:51:29;101924.03;;;9.63;65.15
29359;BME280;16347;53.232;6.556;2023-02-18T00:53:58;101925.75;;;9.75;64.74
29359;BME280;16347;53.232;6.556;2023-02-18T00:56:27;101922.41;;;9.71;64.83
29359;BME280;16347;53.232;6.556;2023-02-18T00:58:55;101911.53;;;9.83;64.37
29359;BME280;16347;53.232;6.556;2023-02-18T01:01:23;101917.34;;;9.78;64.12
29359;BME280;16347;53.232;6.556;2023-02-18T01:03:51;101905.13;;;9.84;63.93
29359;BME280;16347;53.232;6.556;2023-02-18T01:06:20;101909.06;;;9.79;64.60
29359;BME280;16347;53.232;6.556;2023-02-18T01:08:50;101906.97;;;9.72;64.63
29359;BME280;16347;53.232;6.556;2023-02-18T01:11:18;101908.72;;;9.73;64.46
29359;BME280;16347;53.232;6.556;2023-02-18T01:13:47;101894.47;;;9.80;64.68
29359;BME280;16347;53.232;6.556;2023-02-18T01:16:15;101907.50;;;9.66;65.02
29359;BME280;16347;53.232;6.556;2023-02-18T01:18:45;101903.63;;;9.79;65.02
29359;BME280;16347;53.232;6.556;2023-02-18T01:21:13;101902.41;;;9.84;64.46
29359;BME280;16347;53.232;6.556;2023-02-18T01:23:41;101909.88;;;9.91;64.32
29359;BME280;16347;53.232;6.556;2023-02-18T01:26:11;101905.19;;;9.93;64.30
29359;BME280;16347;53.232;6.556;2023-02-18T01:28:39;101915.31;;;9.91;64.44
29359;BME280;16347;53.232;6.556;2023-02-18T01:31:10;101915.25;;;9.70;64.87
29359;BME280;16347;53.232;6.556;2023-02-18T01:33:39;101906.22;;;9.81;64.96
29359;BME280;16347;53.232;6.556;2023-02-18T01:36:08;101904.34;;;9.82;65.17
29359;BME280;16347;53.232;6.556;2023-02-18T01:38:37;101894.09;;;9.85;64.71
29359;BME280;16347;53.232;6.556;2023-02-18T01:41:06;101894.81;;;9.87;65.40
29359;BME280;16347;53.232;6.556;2023-02-18T01:43:36;101889.50;;;9.97;65.23
29359;BME280;16347;53.232;6.556;2023-02-18T01:46:11;101895.44;;;9.91;65.46
29359;BME280;16347;53.232;6.556;2023-02-18T01:48:46;101887.50;;;9.99;65.40
29359;BME280;16347;53.232;6.556;2023-02-18T01:51:19;101890.81;;;10.02;65.15
29359;BME280;16347;53.232;6.556;2023-02-18T01:53:53;101894.94;;;9.97;65.67
29359;BME280;16347;53.232;6.556;2023-02-18T01:56:24;101887.47;;;10.10;65.23
29359;BME280;16347;53.232;6.556;2023-02-18T01:58:56;101878.84;;;10.05;65.80
29359;BME280;16347;53.232;6.556;2023-02-18T02:01:26;101864.13;;;10.07;65.82
29359;BME280;16347;53.232;6.556;2023-02-18T02:03:54;101856.94;;;10.17;65.49
29359;BME280;16347;53.232;6.556;2023-02-18T02:06:23;101841.53;;;10.07;65.32
29359;BME280;16347;53.232;6.556;2023-02-18T02:08:54;101827.03;;;10.17;65.65
29359;BME280;16347;53.232;6.556;2023-02-18T02:11:44;101811.59;;;10.18;66.09
29359;BME280;16347;53.232;6.556;2023-02-18T02:14:32;101809.28;;;10.34;65.78
29359;BME280;16347;53.232;6.556;2023-02-18T02:17:06;101799.84;;;10.38;65.05
29359;BME280;16347;53.232;6.556;2023-02-18T02:20:04;101818.09;;;10.47;65.30
29359;BME280;16347;53.232;6.556;2023-02-18T02:23:08;101809.25;;;10.55;64.96
29359;BME280;16347;53.232;6.556;2023-02-18T02:26:00;101816.81;;;10.51;64.96
29359;BME280;16347;53.232;6.556;2023-02-18T02:32:16;101816.38;;;10.46;65.93
29359;BME280;16347;53.232;6.556;2023-02-18T02:34:52;101809.78;;;10.49;65.53
29359;BME280;16347;53.232;6.556;2023-02-18T02:37:27;101801.09;;;10.55;65.57
29359;BME280;16347;53.232;6.556;2023-02-18T02:40:06;101788.50;;;10.54;65.18
29359;BME280;16347;53.232;6.556;2023-02-18T02:42:43;101787.38;;;10.56;65.36
29359;BME280;16347;53.232;6.556;2023-02-18T02:45:20;101781.66;;;10.59;65.24
29359;BME280;16347;53.232;6.556;2023-02-18T02:47:56;101769.63;;;10.62;65.48
29359;BME280;16347;53.232;6.556;2023-02-18T02:50:33;101760.75;;;10.60;65.41
29359;BME280;16347;53.232;6.556;2023-02-18T02:53:05;101740.31;;;10.65;65.62
29359;BME280;16347;53.232;6.556;2023-02-18T02:55:39;101747.88;;;10.62;65.35
29359;BME280;16347;53.232;6.556;2023-02-18T02:58:11;101744.00;;;10.64;65.55
29359;BME280;16347;53.232;6.556;2023-02-18T03:00:49;101741.06;;;10.67;65.02
29359;BME280;16347;53.232;6.556;2023-02-18T03:03:39;101729.16;;;10.68;65.72
29359;BME280;16347;53.232;6.556;2023-02-18T03:06:47;101729.59;;;10.64;65.64
29359;BME280;16347;53.232;6.556;2023-02-18T03:09:29;101719.94;;;10.50;65.79
29359;BME280;16347;53.232;6.556;2023-02-18T03:12:07;101720.53;;;10.54;66.34
29359;BME280;16347;53.232;6.556;2023-02-18T03:14:43;101712.19;;;10.46;66.79
29359;BME280;16347;53.232;6.556;2023-02-18T03:17:19;101711.25;;;10.26;67.26
29359;BME280;16347;53.232;6.556;2023-02-18T03:19:54;101703.22;;;10.24;68.05
29359;BME280;16347;53.232;6.556;2023-02-18T03:22:28;101707.84;;;10.34;67.64
29359;BME280;16347;53.232;6.556;2023-02-18T03:25:00;101699.09;;;10.30;68.31
29359;BME280;16347;53.232;6.556;2023-02-18T03:27:32;101704.56;;;10.40;68.07
29359;BME280;16347;53.232;6.556;2023-02-18T03:30:04;101700.41;;;10.36;68.09
29359;BME280;16347;53.232;6.556;2023-02-18T03:32:35;101692.44;;;10.44;67.93
29359;BME280;16347;53.232;6.556;2023-02-18T03:35:08;101695.19;;;10.53;68.28
29359;BME280;16347;53.232;6.556;2023-02-18T03:37:42;101700.47;;;10.55;67.67
29359;BME280;16347;53.232;6.556;2023-02-18T03:40:14;101699.88;;;10.51;68.28
29359;BME280;16347;53.232;6.556;2023-02-18T03:42:44;101685.19;;;10.54;67.63
29359;BME280;16347;53.232;6.556;2023-02-18T03:45:12;101687.03;;;10.53;67.97
29359;BME280;16347;53.232;6.556;2023-02-18T03:47:40;101680.09;;;10.40;68.62
29359;BME280;16347;53.232;6.556;2023-02-18T03:50:09;101659.06;;;10.42;68.61
29359;BME280;16347;53.232;6.556;2023-02-18T03:52:37;101659.09;;;10.51;68.51
29359;BME280;16347;53.232;6.556;2023-02-18T03:55:07;101659.25;;;10.50;68.47
29359;BME280;16347;53.232;6.556;2023-02-18T03:57:36;101650.19;;;10.40;69.03
29359;BME280;16347;53.232;6.556;2023-02-18T04:00:05;101642.78;;;10.51;68.48
29359;BME280;16347;53.232;6.556;2023-02-18T04:02:42;101644.78;;;10.49;68.17
29359;BME280;16347;53.232;6.556;2023-02-18T04:05:10;101653.16;;;10.27;69.30
29359;BME280;16347;53.232;6.556;2023-02-18T04:07:39;101650.00;;;10.22;69.41
29359;BME280;16347;53.232;6.556;2023-02-18T04:10:09;101647.50;;;10.40;69.77
29359;BME280;16347;53.232;6.556;2023-02-18T04:12:39;101646.34;;;10.42;69.85
29359;BME280;16347;53.232;6.556;2023-02-18T04:15:08;101648.66;;;10.47;69.57
29359;BME280;16347;53.232;6.556;2023-02-18T04:17:36;101644.22;;;10.46;69.74
29359;BME280;16347;53.232;6.556;2023-02-18T04:20:05;101638.66;;;10.57;69.49
29359;BME280;16347;53.232;6.556;2023-02-18T04:22:33;101640.22;;;10.50;70.01
29359;BME280;16347;53.232;6.556;2023-02-18T04:25:01;101639.41;;;10.19;71.19
29359;BME280;16347;53.232;6.556;2023-02-18T04:27:31;101640.66;;;10.15;71.90
29359;BME280;16347;53.232;6.556;2023-02-18T04:29:59;101627.25;;;10.23;72.06
29359;BME280;16347;53.232;6.556;2023-02-18T04:32:28;101633.38;;;10.15;73.17
29359;BME280;16347;53.232;6.556;2023-02-18T04:34:56;101623.22;;;10.17;72.88
29359;BME280;16347;53.232;6.556;2023-02-18T04:37:24;101614.69;;;10.32;73.13
29359;BME280;16347;53.232;6.556;2023-02-18T04:39:52;101611.00;;;10.42;73.15
29359;BME280;16347;53.232;6.556;2023-02-18T04:42:20;101602.56;;;10.45;73.10
29359;BME280;16347;53.232;6.556;2023-02-18T04:44:50;101600.41;;;10.49;72.66
29359;BME280;16347;53.232;6.556;2023-02-18T04:47:18;101576.41;;;10.54;72.76
29359;BME280;16347;53.232;6.556;2023-02-18T04:49:46;101573.81;;;10.43;73.35
29359;BME280;16347;53.232;6.556;2023-02-18T04:52:14;101571.94;;;10.43;73.25
29359;BME280;16347;53.232;6.556;2023-02-18T04:54:42;101563.50;;;10.37;73.51
29359;BME280;16347;53.232;6.556;2023-02-18T04:57:11;101561.34;;;10.40;73.72
29359;BME280;16347;53.232;6.556;2023-02-18T04:59:39;101548.19;;;10.45;73.46
29359;BME280;16347;53.232;6.556;2023-02-18T05:02:09;101545.16;;;10.39;73.94
29359;BME280;16347;53.232;6.556;2023-02-18T05:04:37;101530.59;;;10.40;74.59
29359;BME280;16347;53.232;6.556;2023-02-18T05:07:05;101519.72;;;10.49;74.60
29359;BME280;16347;53.232;6.556;2023-02-18T05:09:33;101504.56;;;10.47;74.71
29359;BME280;16347;53.232;6.556;2023-02-18T05:12:01;101490.69;;;10.40;75.19
29359;BME280;16347;53.232;6.556;2023-02-18T05:14:29;101470.91;;;10.28;75.89
29359;BME280;16347;53.232;6.556;2023-02-18T05:16:57;101461.19;;;10.16;76.61
29359;BME280;16347;53.232;6.556;2023-02-18T05:19:26;101445.94;;;10.04;77.75
29359;BME280;16347;53.232;6.556;2023-02-18T05:21:54;101452.13;;;10.06;78.50
29359;BME280;16347;53.232;6.556;2023-02-18T05:24:22;101447.34;;;9.79;79.66
29359;BME280;16347;53.232;6.556;2023-02-18T05:26:50;101419.34;;;10.08;80.07
29359;BME280;16347;53.232;6.556;2023-02-18T05:29:19;101421.22;;;10.07;79.79
29359;BME280;16347;53.232;6.556;2023-02-18T05:31:47;101426.66;;;10.07;79.75
29359;BME280;16347;53.232;6.556;2023-02-18T05:34:15;101429.44;;;10.17;80.30
29359;BME280;16347;53.232;6.556;2023-02-18T05:36:44;101424.28;;;10.14;79.92
29359;BME280;16347;53.232;6.556;2023-02-18T05:39:12;101412.56;;;10.33;80.15
29359;BME280;16347;53.232;6.556;2023-02-18T05:41:41;101419.25;;;10.28;80.24
29359;BME280;16347;53.232;6.556;2023-02-18T05:44:09;101416.56;;;10.19;81.06
29359;BME280;16347;53.232;6.556;2023-02-18T05:46:55;101409.84;;;10.23;80.70
29359;BME280;16347;53.232;6.556;2023-02-18T05:49:23;101403.81;;;10.19;80.88
29359;BME280;16347;53.232;6.556;2023-02-18T05:51:53;101401.66;;;10.04;82.54
29359;BME280;16347;53.232;6.556;2023-02-18T05:54:22;101402.06;;;10.09;82.91
29359;BME280;16347;53.232;6.556;2023-02-18T05:56:50;101400.22;;;10.09;83.13
29359;BME280;16347;53.232;6.556;2023-02-18T05:59:19;101391.78;;;10.03;83.79
29359;BME280;16347;53.232;6.556;2023-02-18T06:01:47;101391.22;;;10.18;83.93
29359;BME280;16347;53.232;6.556;2023-02-18T06:04:16;101390.66;;;10.24;83.22
29359;BME280;16347;53.232;6.556;2023-02-18T06:06:44;101388.06;;;10.13;83.35
29359;BME280;16347;53.232;6.556;2023-02-18T06:09:14;101377.75;;;9.98;84.50
29359;BME280;16347;53.232;6.556;2023-02-18T06:11:42;101384.34;;;10.14;84.32
29359;BME280;16347;53.232;6.556;2023-02-18T06:14:10;101376.75;;;10.08;84.45
29359;BME280;16347;53.232;6.556;2023-02-18T06:16:38;101369.66;;;10.26;84.68
29359;BME280;16347;53.232;6.556;2023-02-18T06:19:06;101377.94;;;10.25;84.56
29359;BME280;16347;53.232;6.556;2023-02-18T06:21:35;101369.03;;;10.13;85.56
29359;BME280;16347;53.232;6.556;2023-02-18T06:24:03;101359.19;;;10.32;85.22
29359;BME280;16347;53.232;6.556;2023-02-18T06:26:33;101344.56;;;10.42;85.20
29359;BME280;16347;53.232;6.556;2023-02-18T06:29:02;101332.28;;;10.28;85.82
29359;BME280;16347;53.232;6.556;2023-02-18T06:31:30;101347.16;;;10.44;85.09
29359;BME280;16347;53.232;6.556;2023-02-18T06:33:58;101351.16;;;10.49;85.34
29359;BME280;16347;53.232;6.556;2023-02-18T06:36:26;101347.72;;;10.38;85.78
29359;BME280;16347;53.232;6.556;2023-02-18T06:38:54;101346.59;;;10.40;85.94
29359;BME280;16347;53.232;6.556;2023-02-18T06:41:23;101362.44;;;10.45;86.27
29359;BME280;16347;53.232;6.556;2023-02-18T06:43:52;101337.44;;;10.51;86.15
29359;BME280;16347;53.232;6.556;2023-02-18T06:46:21;101340.53;;;10.56;86.17
29359;BME280;16347;53.232;6.556;2023-02-18T06:48:49;101347.53;;;10.58;86.05
29359;BME280;16347;53.232;6.556;2023-02-18T06:51:17;101325.97;;;10.57;86.86
29359;BME280;16347;53.232;6.556;2023-02-18T06:53:45;101339.56;;;10.57;86.72
29359;BME280;16347;53.232;6.556;2023-02-18T06:56:13;101318.78;;;10.56;87.30
29359;BME280;16347;53.232;6.556;2023-02-18T06:58:41;101316.34;;;10.62;87.48
29359;BME280;16347;53.232;6.556;2023-02-18T07:01:11;101316.88;;;10.75;87.19
29359;BME280;16347;53.232;6.556;2023-02-18T07:03:39;101319.31;;;10.69;86.76
29359;BME280;16347;53.232;6.556;2023-02-18T07:06:07;101298.59;;;10.58;87.23
29359;BME280;16347;53.232;6.556;2023-02-18T07:08:36;101299.72;;;10.65;87.44
29359;BME280;16347;53.232;6.556;2023-02-18T07:11:06;101304.00;;;10.77;87.42
29359;BME280;16347;53.232;6.556;2023-02-18T07:13:34;101314.66;;;10.89;86.89
29359;BME280;16347;53.232;6.556;2023-02-18T07:16:03;101284.06;;;10.87;87.17
29359;BME280;16347;53.232;6.556;2023-02-18T07:18:32;101299.28;;;10.70;87.73
29359;BME280;16347;53.232;6.556;2023-02-18T07:21:00;101289.97;;;10.72;87.90
29359;BME280;16347;53.232;6.556;2023-02-18T07:23:29;101295.94;;;10.86;88.09
29359;BME280;16347;53.232;6.556;2023-02-18T07:26:05;101282.97;;;10.70;88.55
29359;BME280;16347;53.232;6.556;2023-02-18T07:28:34;101294.25;;;10.75;88.58
29359;BME280;16347;53.232;6.556;2023-02-18T07:31:02;101285.00;;;10.58;89.10
29359;BME280;16347;53.232;6.556;2023-02-18T07:33:32;101291.09;;;10.79;88.90
29359;BME280;16347;53.232;6.556;2023-02-18T07:36:01;101299.38;;;10.88;88.43
29359;BME280;16347;53.232;6.556;2023-02-18T07:38:30;101288.25;;;10.71;89.04
29359;BME280;16347;53.232;6.556;2023-02-18T07:40:58;101284.06;;;10.87;88.21
29359;BME280;16347;53.232;6.556;2023-02-18T07:43:26;101284.78;;;10.79;88.68
29359;BME280;16347;53.232;6.556;2023-02-18T07:45:54;101293.94;;;10.78;88.17
29359;BME280;16347;53.232;6.556;2023-02-18T07:48:23;101286.94;;;10.75;88.43
29359;BME280;16347;53.232;6.556;2023-02-18T07:50:52;101286.50;;;10.80;88.41
29359;BME280;16347;53.232;6.556;2023-02-18T07:53:20;101292.25;;;10.77;88.06
29359;BME280;16347;53.232;6.556;2023-02-18T07:55:49;101288.63;;;10.86;87.95
29359;BME280;16347;53.232;6.556;2023-02-18T07:58:18;101275.63;;;10.80;87.93
29359;BME280;16347;53.232;6.556;2023-02-18T08:00:47;101266.69;;;10.60;88.68
29359;BME280;16347;53.232;6.556;2023-02-18T08:03:17;101280.78;;;10.83;88.15
29359;BME280;16347;53.232;6.556;2023-02-18T08:05:47;101281.63;;;10.84;87.72
29359;BME280;16347;53.232;6.556;2023-02-18T08:08:20;101275.72;;;10.88;87.72
29359;BME280;16347;53.232;6.556;2023-02-18T08:10:49;101281.94;;;10.80;87.15
29359;BME280;16347;53.232;6.556;2023-02-18T08:13:18;101265.16;;;10.85;87.22
29359;BME280;16347;53.232;6.556;2023-02-18T08:15:46;101273.91;;;10.79;86.67
29359;BME280;16347;53.232;6.556;2023-02-18T08:18:17;101274.34;;;10.84;86.02
29359;BME280;16347;53.232;6.556;2023-02-18T08:20:46;101262.38;;;10.67;86.37
29359;BME280;16347;53.232;6.556;2023-02-18T08:23:17;101264.06;;;10.68;86.24
29359;BME280;16347;53.232;6.556;2023-02-18T08:25:47;101279.53;;;10.68;86.47
29359;BME280;16347;53.232;6.556;2023-02-18T08:28:16;101266.97;;;10.67;85.90
29359;BME280;16347;53.232;6.556;2023-02-18T08:30:45;101262.38;;;10.67;86.24
29359;BME280;16347;53.232;6.556;2023-02-18T08:33:15;101272.31;;;10.49;86.55
29359;BME280;16347;53.232;6.556;2023-02-18T08:35:44;101300.13;;;10.34;86.92
29359;BME280;16347;53.232;6.556;2023-02-18T08:38:13;101279.47;;;10.50;87.14
29359;BME280;16347;53.232;6.556;2023-02-18T08:40:43;101286.53;;;10.34;86.91
29359;BME280;16347;53.232;6.556;2023-02-18T08:43:12;101281.50;;;10.39;86.79
29359;BME280;16347;53.232;6.556;2023-02-18T08:45:42;101276.16;;;10.56;86.70
29359;BME280;16347;53.232;6.556;2023-02-18T08:48:11;101288.59;;;10.59;85.86
29359;BME280;16347;53.232;6.556;2023-02-18T08:50:47;101278.06;;;10.37;86.62
29359;BME280;16347;53.232;6.556;2023-02-18T08:53:15;101263.66;;;10.26;87.28
29359;BME280;16347;53.232;6.556;2023-02-18T08:55:44;101280.50;;;10.40;86.99
29359;BME280;16347;53.232;6.556;2023-02-18T08:58:13;101299.00;;;10.17;87.60
29359;BME280;16347;53.232;6.556;2023-02-18T09:00:42;101290.25;;;10.23;87.83
29359;BME280;16347;53.232;6.556;2023-02-18T09:03:12;101276.38;;;10.07;88.81
29359;BME280;16347;53.232;6.556;2023-02-18T09:05:40;101268.81;;;10.20;88.99
29359;BME280;16347;53.232;6.556;2023-02-18T09:08:08;101305.81;;;10.40;88.40
29359;BME280;16347;53.232;6.556;2023-02-18T09:10:37;101276.31;;;10.45;87.60
29359;BME280;16347;53.232;6.556;2023-02-18T09:13:06;101273.38;;;10.19;88.51
29359;BME280;16347;53.232;6.556;2023-02-18T09:15:35;101287.38;;;10.34;88.81
29359;BME280;16347;53.232;6.556;2023-02-18T09:18:03;101270.97;;;10.16;88.71
29359;BME280;16347;53.232;6.556;2023-02-18T09:20:31;101261.53;;;10.20;88.82
29359;BME280;16347;53.232;6.556;2023-02-18T09:23:00;101273.81;;;9.96;89.69
29359;BME280;16347;53.232;6.556;2023-02-18T09:25:29;101268.94;;;9.99;90.10
29359;BME280;16347;53.232;6.556;2023-02-18T09:27:58;101257.34;;;9.97;90.09
29359;BME280;16347;53.232;6.556;2023-02-18T09:30:27;101281.25;;;10.03;90.38
29359;BME280;16347;53.232;6.556;2023-02-18T09:32:56;101287.69;;;10.02;90.40
29359;BME280;16347;53.232;6.556;2023-02-18T09:35:24;101293.81;;;10.04;90.71
29359;BME280;16347;53.232;6.556;2023-02-18T09:37:52;101294.56;;;10.16;89.94
29359;BME280;16347;53.232;6.556;2023-02-18T09:40:25;101298.53;;;10.02;90.27
29359;BME280;16347;53.232;6.556;2023-02-18T09:42:55;101297.81;;;10.10;90.19
29359;BME280;16347;53.232;6.556;2023-02-18T09:45:24;101289.38;;;10.13;90.05
29359;BME280;16347;53.232;6.556;2023-02-18T09:47:54;101301.56;;;9.99;90.40
29359;BME280;16347;53.232;6.556;2023-02-18T09:50:25;101328.84;;;9.98;90.45
29359;BME280;16347;53.232;6.556;2023-02-18T09:52:55;101274.06;;;10.12;90.76
29359;BME280;16347;53.232;6.556;2023-02-18T09:55:28;101296.97;;;10.19;90.28
29359;BME280;16347;53.232;6.556;2023-02-18T09:58:00;101289.66;;;10.29;89.71
29359;BME280;16347;53.232;6.556;2023-02-18T10:00:32;101294.13;;;10.20;89.78
29359;BME280;16347;53.232;6.556;2023-02-18T10:03:04;101305.25;;;10.17;89.90
29359;BME280;16347;53.232;6.556;2023-02-18T10:05:36;101299.91;;;10.45;89.64
29359;BME280;16347;53.232;6.556;2023-02-18T10:08:06;101291.53;;;10.28;89.17
29359;BME280;16347;53.232;6.556;2023-02-18T10:10:46;101279.50;;;10.41;88.60
29359;BME280;16347;53.232;6.556;2023-02-18T10:13:17;101283.81;;;10.34;nan
29359;BME280;16347;53.232;6.556;2023-02-18T10:15:47;101290.63;;;10.47;87.41
29359;BME280;16347;53.232;6.556;2023-02-18T10:18:24;101290.44;;;10.58;86.53
29359;BME280;16347;53.232;6.556;2023-02-18T10:20:57;101294.50;;;10.45;85.95
29359;BME280;16347;53.232;6.556;2023-02-18T10:23:29;101286.28;;;10.64;85.09
29359;BME280;16347;53.232;6.556;2023-02-18T10:25:59;101289.75;;;10.56;84.68
29359;BME280;16347;53.232;6.556;2023-02-18T10:28:29;101297.16;;;10.64;84.43
29359;BME280;16347;53.232;6.556;2023-02-18T10:31:02;101296.88;;;10.67;84.48
29359;BME280;16347;53.232;6.556;2023-02-18T10:33:41;101291.16;;;10.60;84.00
29359;BME280;16347;53.232;6.556;2023-02-18T10:36:22;101293.31;;;10.57;83.83
29359;BME280;16347;53.232;6.556;2023-02-18T10:39:04;101306.72;;;10.77;83.38
29359;BME280;16347;53.232;6.556;2023-02-18T10:41:41;101306.84;;;10.76;82.98
29359;BME280;16347;53.232;6.556;2023-02-18T10:44:16;101296.66;;;10.78;82.68
29359;BME280;16347;53.232;6.556;2023-02-18T10:46:55;101315.13;;;10.84;81.91
29359;BME280;16347;53.232;6.556;2023-02-18T10:49:39;101289.50;;;10.87;81.63
29359;BME280;16347;53.232;6.556;2023-02-18T10:52:16;101328.97;;;11.00;81.13
29359;BME280;16347;53.232;6.556;2023-02-18T10:54:49;101316.16;;;11.10;80.97
29359;BME280;16347;53.232;6.556;2023-02-18T10:57:19;101319.41;;;10.87;80.87
29359;BME280;16347;53.232;6.556;2023-02-18T10:59:55;101318.50;;;10.96;81.32
29359;BME280;16347;53.232;6.556;2023-02-18T11:02:25;101338.03;;;10.91;81.36
29359;BME280;16347;53.232;6.556;2023-02-18T11:04:59;101325.94;;;11.03;81.57
29359;BME280;16347;53.232;6.556;2023-02-18T11:07:33;101348.91;;;11.18;80.68
29359;BME280;16347;53.232;6.556;2023-02-18T11:10:14;101327.75;;;11.40;79.92
29359;BME280;16347;53.232;6.556;2023-02-18T11:12:45;101331.63;;;11.37;79.78
29359;BME280;16347;53.232;6.556;2023-02-18T11:15:18;101336.22;;;11.37;79.31
29359;BME280;16347;53.232;6.556;2023-02-18T11:17:48;101347.03;;;11.19;79.48
29359;BME280;16347;53.232;6.556;2023-02-18T11:20:28;101341.34;;;11.40;79.34
29359;BME280;16347;53.232;6.556;2023-02-18T11:23:12;101323.34;;;11.29;79.47
29359;BME280;16347;53.232;6.556;2023-02-18T11:25:52;101344.13;;;11.30;79.82
29359;BME280;16347;53.232;6.556;2023-02-18T11:28:27;101364.91;;;11.31;79.46
29359;BME280;16347;53.232;6.556;2023-02-18T11:30:59;101336.84;;;11.30;79.62
29359;BME280;16347;53.232;6.556;2023-02-18T11:33:33;101361.63;;;11.55;78.96
29359;BME280;16347;53.232;6.556;2023-02-18T11:36:12;101356.53;;;11.42;78.74
29359;BME280;16347;53.232;6.556;2023-02-18T11:38:49;101367.34;;;11.34;78.89
29359;BME280;16347;53.232;6.556;2023-02-18T11:41:20;101367.16;;;11.36;78.75
29359;BME280;16347;53.232;6.556;2023-02-18T11:43:51;101362.19;;;11.31;78.97
29359;BME280;16347;53.232;6.556;2023-02-18T11:46:23;101365.72;;;11.41;79.15
29359;BME280;16347;53.232;6.556;2023-02-18T11:48:53;101377.41;;;11.51;78.20
29359;BME280;16347;53.232;6.556;2023-02-18T11:51:26;101350.22;;;11.42;77.54
29359;BME280;16347;53.232;6.556;2023-02-18T11:53:59;101363.31;;;11.56;77.44
29359;BME280;16347;53.232;6.556;2023-02-18T11:56:31;101366.66;;;11.50;77.24
29359;BME280;16347;53.232;6.556;2023-02-18T11:59:01;101378.56;;;11.49;77.53
29359;BME280;16347;53.232;6.556;2023-02-18T12:01:44;101356.13;;;11.37;77.86
29359;BME280;16347;53.232;6.556;2023-02-18T12:04:15;101377.63;;;11.40;77.74
29359;BME280;16347;53.232;6.556;2023-02-18T12:06:49;101389.94;;;11.44;77.73
29359;BME280;16347;53.232;6.556;2023-02-18T12:09:26;101378.56;;;11.49;77.01
29359;BME280;16347;53.232;6.556;2023-02-18T12:11:57;101383.81;;;11.60;77.17
29359;BME280;16347;53.232;6.556;2023-02-18T12:14:27;101404.47;;;11.53;77.19
29359;BME280;16347;53.232;6.556;2023-02-18T12:17:12;101376.88;;;11.75;76.79
29359;BME280;16347;53.232;6.556;2023-02-18T12:19:53;101388.06;;;11.72;76.44
29359;BME280;16347;53.232;6.556;2023-02-18T12:22:37;101381.69;;;11.54;76.92
29359;BME280;16347;53.232;6.556;2023-02-18T12:25:21;101385.53;;;11.61;76.57
29359;BME280;16347;53.232;6.556;2023-02-18T12:27:59;101395.81;;;11.67;76.60
29359;BME280;16347;53.232;6.556;2023-02-18T12:30:39;101400.91;;;11.52;77.03
29359;BME280;16347;53.232;6.556;2023-02-18T12:33:17;101397.59;;;11.58;76.75
29359;BME280;16347;53.232;6.556;2023-02-18T12:35:57;101384.22;;;11.65;76.61
29359;BME280;16347;53.232;6.556;2023-02-18T12:41:28;101401.34;;;11.85;75.44
29359;BME280;16347;53.232;6.556;2023-02-18T12:44:05;101399.38;;;12.12;74.40
29359;BME280;16347;53.232;6.556;2023-02-18T12:46:56;101407.03;;;12.09;74.06
29359;BME280;16347;53.232;6.556;2023-02-18T12:49:43;101399.22;;;11.96;74.39
29359;BME280;16347;53.232;6.556;2023-02-18T12:52:25;101427.59;;;12.03;74.33
29359;BME280;16347;53.232;6.556;2023-02-18T12:55:23;101417.25;;;12.24;73.39
29359;BME280;16347;53.232;6.556;2023-02-18T12:58:04;101408.84;;;12.18;73.00
29359;BME280;16347;53.232;6.556;2023-02-18T13:00:53;101418.09;;;12.25;72.64
29359;BME280;16347;53.232;6.556;2023-02-18T13:03:49;101426.06;;;12.18;72.59
29359;BME280;16347;53.232;6.556;2023-02-18T13:06:37;101423.84;;;12.04;73.33
29359;BME280;16347;53.232;6.556;2023-02-18T13:09:19;101433.28;;;12.10;72.93
29359;BME280;16347;53.232;6.556;2023-02-18T13:11:56;101418.72;;;12.01;72.91
29359;BME280;16347;53.232;6.556;2023-02-18T13:14:29;101415.75;;;11.95;72.70
29359;BME280;16347;53.232;6.556;2023-02-18T13:17:00;101427.31;;;11.79;73.48
29359;BME280;16347;53.232;6.556;2023-02-18T13:19:32;101431.47;;;12.01;72.89
29359;BME280;16347;53.232;6.556;2023-02-18T13:22:04;101439.31;;;11.86;73.26